Time;durP1;ratioP1;P1;durP2;ratioP2;P2;SDS_P1;SDS_P2;PMS_P1;PMS_P2;Temp;Humidity;BMP_temperature;BMP_pressure;BME280_temperature;BME280_humidity;BME280_pressure;Samples;Min_cycle;Max_cycle;Signal;HPM_P1;HPM_P2
2021/09/11 00:01:06;;;;;;;11.55;6.97;;;;;;;15.04;71.76;100371.69;5113010;28;20127;-70
2021/09/11 00:03:36;;;;;;;13.75;6.85;;;;;;;15.21;70.81;100371.25;5113130;28;20039;-69
2021/09/11 00:06:05;;;;;;;13.93;7.13;;;;;;;15.14;70.89;100370.00;5113202;28;20070;-70
2021/09/11 00:08:33;;;;;;;17.60;6.90;;;;;;;15.11;70.96;100376.50;5113361;28;20040;-69
2021/09/11 00:11:04;;;;;;;12.98;6.40;;;;;;;15.13;70.78;100371.00;5113257;28;20478;-69
2021/09/11 00:13:32;;;;;;;10.77;6.50;;;;;;;15.00;70.98;100376.47;5113313;28;20036;-70
2021/09/11 00:16:00;;;;;;;12.48;6.93;;;;;;;15.04;71.15;100383.28;5112999;28;20070;-69
2021/09/11 00:18:30;;;;;;;12.43;6.32;;;;;;;15.13;70.51;100381.75;5112958;28;20096;-70
2021/09/11 00:21:00;;;;;;;13.93;6.40;;;;;;;15.06;70.87;100376.00;5112769;28;20044;-69
2021/09/11 00:23:29;;;;;;;13.30;6.03;;;;;;;15.13;70.49;100376.38;5112764;28;20062;-67
2021/09/11 00:26:02;;;;;;;11.55;6.45;;;;;;;15.13;70.55;100377.22;5112486;28;20043;-72
2021/09/11 00:28:31;;;;;;;10.10;6.50;;;;;;;14.95;71.33;100381.31;5095006;28;20056;-71
2021/09/11 00:31:00;;;;;;;13.48;6.55;;;;;;;15.07;70.72;100371.47;5111903;28;20044;-71
2021/09/11 00:33:29;;;;;;;13.95;6.85;;;;;;;14.86;71.75;100382.91;5116237;28;20401;-71
2021/09/11 00:35:57;;;;;;;13.13;7.43;;;;;;;14.82;71.92;100383.22;5116529;28;20043;-72
2021/09/11 00:38:27;;;;;;;12.73;6.82;;;;;;;14.76;72.39;100379.16;5116907;28;20051;-69
2021/09/11 00:40:55;;;;;;;12.30;6.72;;;;;;;14.90;71.68;100378.13;5116537;28;20043;-75
2021/09/11 00:43:24;;;;;;;11.57;6.88;;;;;;;14.97;71.57;100379.38;5116561;28;20062;-70
2021/09/11 00:45:54;;;;;;;11.55;7.03;;;;;;;14.91;71.80;100381.69;5116466;28;20126;-70
2021/09/11 00:48:23;;;;;;;10.63;6.75;;;;;;;14.73;72.68;100386.59;5116683;28;20050;-70
2021/09/11 00:50:51;;;;;;;11.90;7.28;;;;;;;14.61;73.09;100385.72;5116447;28;20055;-70
2021/09/11 00:53:21;;;;;;;12.85;6.78;;;;;;;14.62;72.98;100384.72;5116148;28;20114;-70
2021/09/11 00:55:51;;;;;;;15.88;6.75;;;;;;;14.72;72.50;100391.13;5116327;28;20042;-71
2021/09/11 00:58:20;;;;;;;11.82;6.40;;;;;;;14.71;72.18;100385.88;5116137;28;20032;-70
2021/09/11 01:00:48;;;;;;;16.83;6.63;;;;;;;14.78;71.80;100387.13;5116305;28;20377;-70
2021/09/11 01:03:17;;;;;;;11.32;6.43;;;;;;;14.72;72.38;100385.75;5116278;28;20497;-71
2021/09/11 01:05:46;;;;;;;12.50;6.53;;;;;;;14.88;71.49;100391.69;5116214;28;20039;-70
2021/09/11 01:08:18;;;;;;;11.18;6.38;;;;;;;14.80;71.76;100386.03;5115973;28;20039;-70
2021/09/11 01:10:46;;;;;;;10.88;6.25;;;;;;;14.74;72.22;100380.25;5116309;28;20047;-70
2021/09/11 01:13:16;;;;;;;12.00;6.47;;;;;;;14.87;71.77;100389.97;5115780;28;20409;-70
2021/09/11 01:15:44;;;;;;;11.23;7.03;;;;;;;14.79;72.03;100389.69;5116632;28;20092;-71
2021/09/11 01:18:16;;;;;;;13.52;6.78;;;;;;;14.79;72.25;100381.63;5115659;28;20043;-71
2021/09/11 01:20:45;;;;;;;11.60;6.57;;;;;;;14.82;71.84;100384.09;5115988;28;20050;-70
2021/09/11 01:23:13;;;;;;;11.65;6.75;;;;;;;14.75;72.20;100388.19;5115372;28;20047;-70
2021/09/11 01:25:42;;;;;;;12.40;6.75;;;;;;;14.58;72.87;100392.16;5115732;28;20075;-70
2021/09/11 01:28:13;;;;;;;10.95;6.50;;;;;;;14.58;73.10;100386.81;5115727;28;20039;-71
2021/09/11 01:30:44;;;;;;;12.30;6.90;;;;;;;14.58;73.42;100399.38;5115914;28;20047;-71
2021/09/11 01:33:13;;;;;;;11.70;6.80;;;;;;;14.53;73.58;100388.97;5115521;28;20039;-71
2021/09/11 01:35:41;;;;;;;11.38;6.95;;;;;;;14.54;73.37;100389.81;5115541;28;20092;-71
2021/09/11 01:38:10;;;;;;;13.52;7.20;;;;;;;14.47;73.91;100389.41;5115678;28;20055;-71
2021/09/11 01:40:38;;;;;;;11.05;7.07;;;;;;;14.42;73.96;100396.06;5096842;28;20044;-71
2021/09/11 01:43:09;;;;;;;13.65;7.07;;;;;;;14.44;74.07;100394.97;5115021;28;20062;-71
2021/09/11 01:45:45;;;;;;;14.65;7.15;;;;;;;14.55;73.79;100395.06;5115540;28;20040;-71
2021/09/11 01:48:13;;;;;;;12.35;7.43;;;;;;;14.38;74.56;100394.56;5115226;28;20071;-71
2021/09/11 01:50:41;;;;;;;15.73;8.02;;;;;;;14.39;74.63;100394.47;5115616;28;20050;-71
2021/09/11 01:53:10;;;;;;;10.25;7.05;;;;;;;14.30;75.05;100389.78;5115127;28;20100;-72
2021/09/11 01:55:41;;;;;;;14.52;7.55;;;;;;;14.31;75.01;100384.28;5115430;28;20046;-70
2021/09/11 01:58:13;;;;;;;14.90;8.07;;;;;;;14.27;75.15;100388.16;5114866;28;20163;-71
2021/09/11 02:00:41;;;;;;;13.73;7.43;;;;;;;14.14;75.79;100392.72;5115119;28;20054;-71
2021/09/11 02:03:10;;;;;;;14.02;7.38;;;;;;;14.21;75.41;100385.94;5114762;28;20051;-71
2021/09/11 02:05:39;;;;;;;10.10;7.25;;;;;;;14.10;75.90;100390.38;5115057;28;20426;-70
2021/09/11 02:08:08;;;;;;;12.38;7.32;;;;;;;14.02;76.22;100389.09;5114924;28;20536;-73
2021/09/11 02:10:36;;;;;;;12.65;7.35;;;;;;;14.07;76.02;100391.44;5114985;28;20043;-73
2021/09/11 02:13:07;;;;;;;11.38;7.32;;;;;;;14.14;75.61;100384.66;5114587;28;20116;-73
2021/09/11 02:15:36;;;;;;;11.60;7.55;;;;;;;14.08;76.08;100374.38;5097146;28;20440;-73
2021/09/11 02:18:04;;;;;;;15.00;7.65;;;;;;;13.93;76.45;100388.91;5114787;28;20096;-73
2021/09/11 02:20:33;;;;;;;11.80;7.28;;;;;;;13.90;76.61;100389.13;5114788;28;20127;-71
2021/09/11 02:23:01;;;;;;;14.75;8.15;;;;;;;13.82;76.99;100396.88;5114810;28;20472;-75
2021/09/11 02:25:30;;;;;;;14.52;7.43;;;;;;;13.81;77.03;100395.16;5115137;28;20460;-71
2021/09/11 02:27:59;;;;;;;12.77;7.13;;;;;;;13.68;77.41;100395.16;5114555;28;20094;-71
2021/09/11 02:30:29;;;;;;;14.32;7.13;;;;;;;13.71;77.19;100393.13;5114939;28;20048;-71
2021/09/11 02:33:01;;;;;;;15.57;7.78;;;;;;;13.68;77.58;100390.66;5114728;28;20045;-71
2021/09/11 02:35:29;;;;;;;13.50;6.78;;;;;;;13.65;77.27;100398.06;5114454;28;20047;-71
2021/09/11 02:37:59;;;;;;;12.77;7.32;;;;;;;13.63;77.63;100392.81;5114562;28;20059;-71
2021/09/11 02:40:28;;;;;;;10.98;6.80;;;;;;;13.51;78.04;100395.47;5096774;28;20043;-71
2021/09/11 02:42:57;;;;;;;15.15;7.57;;;;;;;13.66;77.51;100389.03;5114279;28;20040;-71
2021/09/11 02:45:28;;;;;;;13.02;7.38;;;;;;;13.70;77.27;100394.09;5114100;28;20053;-71
2021/09/11 02:47:56;;;;;;;12.23;7.50;;;;;;;13.57;77.69;100393.22;5114382;28;20035;-71
2021/09/11 02:50:26;;;;;;;12.32;7.93;;;;;;;13.49;78.27;100400.09;5113963;28;20404;-72
2021/09/11 02:52:54;;;;;;;14.32;7.82;;;;;;;13.66;77.32;100402.44;5114541;28;20069;-72
2021/09/11 02:55:25;;;;;;;13.48;7.57;;;;;;;13.71;76.82;100409.22;5113166;28;20544;-72
2021/09/11 02:57:53;;;;;;;13.77;7.82;;;;;;;13.58;77.60;100413.69;5096184;28;20452;-72
2021/09/11 03:00:22;;;;;;;10.98;8.10;;;;;;;13.55;77.81;100405.88;5113744;28;20047;-71
2021/09/11 03:02:50;;;;;;;15.10;7.10;;;;;;;13.47;78.13;100413.59;5113956;28;20118;-71
2021/09/11 03:05:19;;;;;;;15.30;7.88;;;;;;;13.35;78.52;100404.59;5113800;28;20047;-72
2021/09/11 03:07:49;;;;;;;12.13;7.88;;;;;;;13.27;78.89;100409.63;5114258;28;20046;-72
2021/09/11 03:10:17;;;;;;;15.45;8.05;;;;;;;13.39;78.46;100407.91;5113599;28;20039;-72
2021/09/11 03:12:45;;;;;;;17.98;8.95;;;;;;;13.44;78.35;100408.47;5113757;28;20043;-74
2021/09/11 03:15:15;;;;;;;14.35;8.00;;;;;;;13.39;78.19;100410.59;5113414;28;20048;-72
2021/09/11 03:17:44;;;;;;;12.80;8.07;;;;;;;13.27;78.79;100414.97;5113652;28;20126;-72
2021/09/11 03:20:13;;;;;;;10.57;7.63;;;;;;;13.28;78.92;100413.16;5113627;28;20055;-72
2021/09/11 03:22:41;;;;;;;13.25;7.35;;;;;;;13.36;78.33;100409.00;5113845;28;20043;-72
2021/09/11 03:25:11;;;;;;;11.23;7.88;;;;;;;13.37;78.36;100404.47;5113287;28;20090;-72
2021/09/11 03:27:42;;;;;;;13.20;8.18;;;;;;;13.38;78.13;100406.19;5113921;28;20122;-72
2021/09/11 03:30:11;;;;;;;15.20;8.15;;;;;;;13.31;78.66;100405.75;5113024;28;20051;-72
2021/09/11 03:32:39;;;;;;;11.60;7.90;;;;;;;13.21;78.97;100406.50;5113556;28;20489;-72
2021/09/11 03:35:10;;;;;;;17.55;8.52;;;;;;;13.03;80.00;100409.47;5112923;28;20089;-72
2021/09/11 03:37:39;;;;;;;15.73;7.90;;;;;;;13.05;80.08;100409.34;5113325;28;20067;-72
2021/09/11 03:40:08;;;;;;;18.30;8.65;;;;;;;12.95;80.46;100411.78;5112703;28;20059;-73
2021/09/11 03:42:38;;;;;;;14.70;8.18;;;;;;;13.00;80.33;100409.66;5113072;28;20047;-71
2021/09/11 03:45:07;;;;;;;13.73;8.05;;;;;;;12.80;81.54;100407.44;5112777;28;20040;-77
2021/09/11 03:47:38;;;;;;;13.80;7.75;;;;;;;12.90;81.18;100411.22;5113308;28;20043;-73
2021/09/11 03:50:08;;;;;;;11.07;7.72;;;;;;;12.98;80.88;100403.53;5112900;28;20043;-79
2021/09/11 03:52:37;;;;;;;13.70;8.05;;;;;;;12.98;80.63;100408.91;5113271;28;20436;-74
2021/09/11 03:55:09;;;;;;;15.68;8.13;;;;;;;12.91;80.99;100394.19;5112953;28;20052;-74
2021/09/11 03:57:40;;;;;;;11.55;7.78;;;;;;;12.94;81.03;100399.38;5113412;28;20047;-73
2021/09/11 04:00:10;;;;;;;12.23;8.15;;;;;;;12.99;80.62;100401.72;5113024;28;20046;-74
2021/09/11 04:02:40;;;;;;;13.95;8.20;;;;;;;12.98;80.71;100400.88;5113277;28;20151;-73
2021/09/11 04:05:10;;;;;;;13.77;8.15;;;;;;;13.03;80.33;100398.75;5112700;28;20071;-73
2021/09/11 04:07:38;;;;;;;16.77;7.80;;;;;;;13.12;79.86;100394.56;5114837;28;20073;-73
2021/09/11 04:10:07;;;;;;;15.32;8.05;;;;;;;13.18;79.50;100392.31;5117628;28;20497;-73
2021/09/11 04:12:39;;;;;;;17.50;8.50;;;;;;;12.84;81.14;100400.94;5117323;28;20051;-72
2021/09/11 04:15:08;;;;;;;14.60;7.45;;;;;;;12.91;81.17;100399.56;5117377;28;20085;-72
2021/09/11 04:17:36;;;;;;;19.23;7.63;;;;;;;13.00;80.45;100398.94;5117293;28;20126;-73
2021/09/11 04:20:08;;;;;;;13.27;7.85;;;;;;;13.03;80.48;100408.59;5117024;28;20085;-73
2021/09/11 04:22:36;;;;;;;15.95;7.90;;;;;;;13.21;79.70;100401.13;5117397;28;20433;-73
2021/09/11 04:25:05;;;;;;;11.63;7.65;;;;;;;13.21;79.46;100399.31;5116780;28;20359;-73
2021/09/11 04:27:37;;;;;;;15.80;7.70;;;;;;;13.22;79.38;100397.50;5099123;28;20062;-73
2021/09/11 04:30:07;;;;;;;13.57;7.05;;;;;;;13.15;79.42;100397.91;5117147;28;20284;-74
2021/09/11 04:32:35;;;;;;;12.65;7.22;;;;;;;13.14;79.58;100401.53;5116827;28;20047;-74
2021/09/11 04:35:08;;;;;;;12.23;7.25;;;;;;;13.15;79.60;100405.94;5117093;28;20444;-71
2021/09/11 04:37:36;;;;;;;12.95;7.65;;;;;;;13.38;78.63;100407.06;5117475;28;20433;-71
2021/09/11 04:40:08;;;;;;;15.77;7.45;;;;;;;13.18;79.50;100400.34;5116597;28;20096;-72
2021/09/11 04:42:39;;;;;;;12.45;7.55;;;;;;;13.15;79.59;100408.63;5117206;28;20044;-72
2021/09/11 04:45:10;;;;;;;13.23;6.97;;;;;;;13.10;79.96;100404.53;5116390;28;20040;-72
2021/09/11 04:47:38;;;;;;;16.08;7.32;;;;;;;13.23;79.57;100405.44;5116921;28;20048;-75
2021/09/11 04:50:11;;;;;;;11.90;7.30;;;;;;;13.23;79.41;100402.78;5098325;28;20051;-75
2021/09/11 04:52:42;;;;;;;12.73;6.95;;;;;;;13.21;79.54;100402.00;5116769;28;20413;-75
2021/09/11 04:55:11;;;;;;;11.18;7.20;;;;;;;13.35;78.82;100406.41;5116200;28;20050;-81
2021/09/11 04:57:42;;;;;;;14.60;6.85;;;;;;;13.45;78.61;100412.84;5116312;28;20074;-71
2021/09/11 05:00:15;;;;;;;12.20;7.05;;;;;;;13.54;78.29;100409.53;5116317;28;20036;-75
2021/09/11 05:02:45;;;;;;;12.25;7.50;;;;;;;13.60;77.73;100401.03;5116141;28;20142;-75
2021/09/11 05:05:16;;;;;;;13.52;7.35;;;;;;;13.57;77.94;100403.94;5115807;28;20396;-75
2021/09/11 05:07:45;;;;;;;12.40;7.05;;;;;;;13.61;77.93;100413.50;5116063;28;20046;-75
2021/09/11 05:10:13;;;;;;;11.95;6.82;;;;;;;13.81;77.01;100404.06;5115853;28;20078;-75
2021/09/11 05:12:41;;;;;;;13.95;6.85;;;;;;;13.95;76.41;100403.06;5116456;28;20117;-75
2021/09/11 05:15:14;;;;;;;11.65;6.88;;;;;;;13.98;76.18;100405.50;5115885;28;20508;-76
2021/09/11 05:17:43;;;;;;;12.88;7.40;;;;;;;14.00;76.03;100411.66;5115382;28;20047;-74
2021/09/11 05:20:12;;;;;;;15.27;7.32;;;;;;;14.11;75.92;100408.19;5115731;28;20508;-77
2021/09/11 05:22:43;;;;;;;9.32;6.68;;;;;;;14.29;74.94;100406.84;5116085;28;20039;-75
2021/09/11 05:25:14;;;;;;;15.20;7.28;;;;;;;14.38;74.08;100408.88;5115616;28;20117;-72
2021/09/11 05:27:42;;;;;;;13.90;7.55;;;;;;;14.34;74.29;100418.09;5115683;28;20114;-72
2021/09/11 05:30:11;;;;;;;13.20;6.88;;;;;;;14.47;73.71;100402.81;5115270;28;20039;-72
2021/09/11 05:32:42;;;;;;;13.63;6.43;;;;;;;14.70;72.82;100411.88;5115487;28;20043;-73
2021/09/11 05:35:10;;;;;;;12.73;6.35;;;;;;;14.79;72.60;100416.56;5115251;28;20047;-72
2021/09/11 05:37:40;;;;;;;11.55;6.28;;;;;;;14.94;70.91;100419.03;5115453;28;20097;-71
2021/09/11 05:40:11;;;;;;;11.38;7.15;;;;;;;14.89;71.46;100422.94;5115474;28;20415;-72
2021/09/11 05:42:39;;;;;;;14.27;7.25;;;;;;;14.97;71.21;100413.44;5114833;28;20084;-71
2021/09/11 05:45:08;;;;;;;12.52;7.13;;;;;;;15.06;70.46;100418.13;5114945;28;20500;-71
2021/09/11 05:47:36;;;;;;;14.63;6.45;;;;;;;15.20;69.56;100409.84;5114268;28;20050;-72
2021/09/11 05:50:08;;;;;;;12.02;6.78;;;;;;;15.34;68.95;100412.31;5114712;28;20054;-72
2021/09/11 05:52:36;;;;;;;11.02;6.85;;;;;;;15.36;68.66;100418.47;5114089;28;20100;-72
2021/09/11 05:55:05;;;;;;;11.98;6.45;;;;;;;15.49;68.34;100415.66;5114441;28;20044;-71
2021/09/11 05:57:33;;;;;;;13.85;7.05;;;;;;;15.57;67.63;100404.31;5114448;28;20052;-71
2021/09/11 06:00:02;;;;;;;10.90;6.97;;;;;;;15.62;67.90;100405.69;5114935;28;20130;-72
2021/09/11 06:02:33;;;;;;;13.20;7.10;;;;;;;15.80;66.80;100399.81;5115133;28;20055;-72
2021/09/11 06:05:01;;;;;;;14.20;6.72;;;;;;;16.02;65.50;100408.78;5115116;28;20073;-71
2021/09/11 06:07:32;;;;;;;12.10;6.68;;;;;;;16.19;64.51;100409.22;5114588;28;20059;-71
2021/09/11 06:10:01;;;;;;;12.95;6.97;;;;;;;16.22;63.93;100409.84;5115001;28;20039;-72
2021/09/11 06:12:29;;;;;;;13.57;6.90;;;;;;;16.47;62.91;100403.31;5114430;28;20486;-72
2021/09/11 06:14:58;;;;;;;14.63;6.97;;;;;;;16.54;62.62;100401.81;5114785;28;20044;-72
2021/09/11 06:17:26;;;;;;;12.52;6.90;;;;;;;16.76;61.83;100408.13;5114329;28;20046;-71
2021/09/11 06:19:54;;;;;;;14.10;6.80;;;;;;;16.79;61.52;100403.38;5114722;28;20047;-71
2021/09/11 06:22:24;;;;;;;13.18;7.00;;;;;;;16.86;61.51;100409.09;5114642;28;20093;-73
2021/09/11 06:24:54;;;;;;;11.45;6.57;;;;;;;17.05;60.65;100413.78;5114653;28;20067;-73
2021/09/11 06:27:25;;;;;;;13.55;7.25;;;;;;;17.05;60.42;100416.47;5114102;28;20055;-71
2021/09/11 06:29:53;;;;;;;9.65;5.60;;;;;;;17.12;60.50;100420.38;5113988;28;20104;-71
2021/09/11 06:32:21;;;;;;;13.20;6.85;;;;;;;17.13;59.61;100424.75;5114029;28;20054;-72
2021/09/11 06:34:52;;;;;;;13.35;6.65;;;;;;;17.31;59.47;100423.19;5114659;28;20428;-71
2021/09/11 06:37:20;;;;;;;12.07;6.38;;;;;;;17.62;58.28;100423.25;5114273;28;20039;-72
2021/09/11 06:39:50;;;;;;;11.50;6.60;;;;;;;18.04;57.93;100413.25;5114248;28;20163;-71
2021/09/11 06:42:20;;;;;;;12.77;5.93;;;;;;;18.36;56.28;100423.03;5114286;28;20048;-75
2021/09/11 06:44:48;;;;;;;11.57;6.18;;;;;;;18.52;56.23;100429.59;5114613;28;20389;-71
2021/09/11 06:47:16;;;;;;;12.85;5.68;;;;;;;18.83;54.15;100435.81;5114419;28;20036;-71
2021/09/11 06:49:48;;;;;;;15.88;6.20;;;;;;;19.39;53.05;100420.69;5114161;28;20057;-71
2021/09/11 06:52:17;;;;;;;10.32;5.38;;;;;;;19.36;53.05;100427.25;5113752;28;20051;-71
2021/09/11 06:54:47;;;;;;;9.57;5.40;;;;;;;19.08;53.91;100426.28;5114162;28;20454;-71
2021/09/11 06:57:18;;;;;;;11.20;5.10;;;;;;;18.79;54.64;100417.31;5113991;28;20040;-71
2021/09/11 06:59:49;;;;;;;14.93;5.80;;;;;;;18.66;55.09;100423.00;5113810;28;20331;-71
2021/09/11 07:02:17;;;;;;;11.88;5.38;;;;;;;18.58;54.76;100417.41;5113896;28;20043;-71
2021/09/11 07:04:45;;;;;;;10.00;5.25;;;;;;;18.58;55.06;100417.41;5113721;28;20039;-71
2021/09/11 07:07:16;;;;;;;12.38;5.50;;;;;;;18.68;54.73;100421.00;5113656;28;20149;-71
2021/09/11 07:09:45;;;;;;;11.65;5.43;;;;;;;18.72;54.64;100413.44;5113917;28;20066;-71
2021/09/11 07:12:15;;;;;;;10.20;5.25;;;;;;;18.71;54.32;100418.00;5113827;28;20043;-71
2021/09/11 07:14:47;;;;;;;10.30;5.05;;;;;;;18.68;54.87;100418.28;5113433;28;20123;-73
2021/09/11 07:17:15;;;;;;;11.80;5.47;;;;;;;18.65;54.96;100418.59;5113528;28;20044;-73
2021/09/11 07:19:44;;;;;;;9.80;5.50;;;;;;;18.67;55.03;100421.16;5112948;28;20048;-72
2021/09/11 07:22:13;;;;;;;11.63;5.10;;;;;;;18.66;55.55;100414.03;5113663;28;20363;-72
2021/09/11 07:24:43;;;;;;;11.05;5.30;;;;;;;18.94;54.60;100423.16;5112868;28;20055;-72
2021/09/11 07:27:11;;;;;;;10.48;5.18;;;;;;;19.07;53.59;100429.13;5113020;28;20047;-72
2021/09/11 07:29:40;;;;;;;10.38;5.47;;;;;;;19.01;54.11;100424.28;5112484;28;20402;-72
2021/09/11 07:32:10;;;;;;;11.38;5.57;;;;;;;18.93;54.59;100427.72;5113345;28;20032;-74
2021/09/11 07:34:39;;;;;;;12.05;5.47;;;;;;;19.11;53.81;100419.75;5113066;28;20115;-73
2021/09/11 07:37:07;;;;;;;11.10;5.22;;;;;;;19.09;54.61;100427.13;5113520;28;20043;-73
2021/09/11 07:39:35;;;;;;;9.30;5.35;;;;;;;19.33;52.97;100430.25;5113281;28;20043;-72
2021/09/11 07:42:04;;;;;;;9.57;5.53;;;;;;;19.27;53.27;100428.13;5113005;28;20056;-72
2021/09/11 07:44:35;;;;;;;11.73;5.20;;;;;;;19.23;53.63;100424.00;5112885;28;20044;-72
2021/09/11 07:47:03;;;;;;;12.65;5.45;;;;;;;19.24;53.75;100420.31;5113039;28;20244;-71
2021/09/11 07:49:35;;;;;;;10.05;4.93;;;;;;;19.33;53.92;100416.75;5113161;28;20069;-72
2021/09/11 07:52:06;;;;;;;9.93;5.38;;;;;;;19.68;53.15;100426.06;5113155;28;20051;-72
2021/09/11 07:54:37;;;;;;;12.77;5.75;;;;;;;19.78;52.52;100428.75;5112140;28;20044;-74
2021/09/11 07:57:05;;;;;;;9.90;5.53;;;;;;;20.01;52.13;100425.56;5113285;28;20393;-72
2021/09/11 07:59:34;;;;;;;8.35;5.38;;;;;;;20.04;51.42;100428.97;5112755;28;20050;-71
2021/09/11 08:02:02;;;;;;;9.80;5.65;;;;;;;20.16;51.55;100422.34;5113241;28;20088;-71
2021/09/11 08:04:31;;;;;;;13.13;5.50;;;;;;;20.08;52.25;100424.97;5112711;28;20067;-70
2021/09/11 08:07:01;;;;;;;10.95;5.32;;;;;;;20.10;52.14;100428.38;5114984;28;20428;-70
2021/09/11 08:09:29;;;;;;;10.80;5.35;;;;;;;20.21;52.06;100428.19;5112030;28;20478;-75
2021/09/11 08:11:57;;;;;;;10.95;5.65;;;;;;;20.24;51.30;100430.56;5112966;28;20474;-75
2021/09/11 08:14:25;;;;;;;10.85;5.40;;;;;;;20.22;51.85;100428.03;5112588;28;20039;-73
2021/09/11 08:16:54;;;;;;;11.73;5.38;;;;;;;20.34;51.61;100425.97;5112919;28;20463;-70
2021/09/11 08:19:25;;;;;;;11.27;5.43;;;;;;;20.30;51.73;100422.72;5112796;28;20048;-75
2021/09/11 08:21:53;;;;;;;10.32;5.47;;;;;;;20.55;50.66;100431.16;5113171;28;20121;-77
2021/09/11 08:24:26;;;;;;;10.63;5.22;;;;;;;20.82;50.06;100419.41;5112954;28;20052;-75
2021/09/11 08:26:54;;;;;;;12.23;4.97;;;;;;;20.76;49.92;100417.34;5113073;28;20051;-74
2021/09/11 08:29:24;;;;;;;8.20;5.30;;;;;;;20.70;49.57;100415.22;5112751;28;20082;-74
2021/09/11 08:31:52;;;;;;;10.35;5.28;;;;;;;20.79;49.58;100412.44;5112877;28;20035;-79
2021/09/11 08:34:20;;;;;;;12.90;5.20;;;;;;;21.15;48.89;100410.59;5112663;28;20447;-79
2021/09/11 08:36:49;;;;;;;11.00;4.90;;;;;;;21.10;48.42;100412.91;5112581;28;20040;-76
2021/09/11 08:39:26;;;;;;;7.40;4.65;;;;;;;21.13;48.97;100409.91;5111945;28;20416;-82
2021/09/11 08:41:56;;;;;;;12.57;4.90;;;;;;;21.27;48.54;100404.94;5112997;28;20048;-73
2021/09/11 08:44:26;;;;;;;10.18;5.30;;;;;;;21.38;47.17;100400.09;5112240;28;20075;-82
2021/09/11 08:46:55;;;;;;;12.40;5.25;;;;;;;21.50;47.57;100408.84;5112049;28;20051;-72
2021/09/11 08:49:24;;;;;;;11.35;5.03;;;;;;;21.71;46.09;100403.03;5111640;28;20042;-71
2021/09/11 08:51:52;;;;;;;9.02;4.07;;;;;;;21.64;45.32;100405.56;5110946;28;20039;-71
2021/09/11 08:54:21;;;;;;;7.93;4.25;;;;;;;21.56;44.52;100405.50;5111970;28;20510;-71
2021/09/11 08:56:56;;;;;;;8.35;4.38;;;;;;;21.90;43.97;100404.66;5115156;28;20040;-73
2021/09/11 08:59:29;;;;;;;8.93;4.40;;;;;;;21.87;43.88;100402.28;5113610;28;20044;-74
2021/09/11 09:02:05;;;;;;;;;;;;;;;22.00;43.90;100397.25;5116178;28;20035;-76
2021/09/11 09:04:45;;;;;;;8.23;3.85;;;;;;;22.01;44.04;100396.28;5115895;28;20377;-74
2021/09/11 09:07:29;;;;;;;12.60;4.65;;;;;;;22.14;44.85;100391.25;5116168;28;20048;-75
2021/09/11 09:10:01;;;;;;;7.03;4.35;;;;;;;22.20;44.10;100396.03;5115564;28;20050;-75
2021/09/11 09:12:37;;;;;;;7.75;4.65;;;;;;;22.09;43.41;100399.03;5115638;28;20040;-76
2021/09/11 09:15:06;;;;;;;;;;;;;;;22.11;44.24;100383.44;5115990;28;20036;-73
2021/09/11 09:17:47;;;;;;;9.98;4.50;;;;;;;22.20;44.05;100385.19;5114717;28;19924;-72
2021/09/11 09:20:21;;;;;;;8.65;4.60;;;;;;;22.45;43.78;100382.53;5097284;28;20502;-73
2021/09/11 09:22:51;;;;;;;8.57;4.63;;;;;;;22.49;43.36;100389.34;5116063;28;20508;-73
2021/09/11 09:25:28;;;;;;;10.88;4.30;;;;;;;22.78;41.70;100387.03;5116165;28;20052;-72
2021/09/11 09:28:01;;;;;;;10.77;4.60;;;;;;;22.74;41.65;100382.94;5115830;28;20039;-72
2021/09/11 09:30:40;;;;;;;8.90;4.28;;;;;;;22.55;42.71;100383.22;5115206;28;20092;-74
2021/09/11 09:33:17;;;;;;;7.22;4.75;;;;;;;22.49;42.90;100375.75;5115639;28;20050;-77
2021/09/11 09:35:45;;;;;;;7.10;4.15;;;;;;;22.57;42.74;100375.75;5111784;28;20051;-73
2021/09/11 09:38:18;;;;;;;10.48;4.53;;;;;;;23.17;40.57;100372.81;5115116;28;20043;-69
2021/09/11 09:40:48;;;;;;;7.93;4.73;;;;;;;23.19;40.60;100378.91;5115287;28;20040;-70
2021/09/11 09:43:31;;;;;;;8.07;4.25;;;;;;;23.27;40.43;100367.19;5115010;28;20688;-72
2021/09/11 09:46:04;;;;;;;7.10;4.32;;;;;;;23.07;39.90;100366.69;5115333;28;20449;-70
2021/09/11 09:48:36;;;;;;;5.88;3.80;;;;;;;23.22;39.82;100372.28;5115074;28;20492;-70
2021/09/11 09:51:06;;;;;;;8.63;4.43;;;;;;;23.18;39.77;100363.63;5114760;28;20390;-70
2021/09/11 09:53:35;;;;;;;8.57;4.32;;;;;;;23.27;39.35;100365.31;5114635;28;20046;-68
2021/09/11 09:56:07;;;;;;;10.65;4.85;;;;;;;23.32;39.60;100371.06;5114994;28;20040;-68
2021/09/11 09:58:37;;;;;;;9.23;4.35;;;;;;;23.28;38.81;100367.00;5115020;28;20044;-68
2021/09/11 10:01:06;;;;;;;8.25;4.18;;;;;;;23.33;38.48;100361.88;5114403;28;20064;-71
2021/09/11 10:03:37;;;;;;;7.00;4.00;;;;;;;23.53;38.30;100356.91;5114552;28;20501;-69
2021/09/11 10:06:12;;;;;;;7.85;4.32;;;;;;;23.67;38.84;100352.69;5113153;28;20043;-72
2021/09/11 10:08:46;;;;;;;13.13;4.47;;;;;;;23.77;38.67;100349.75;5115030;28;20036;-68
2021/09/11 10:11:17;;;;;;;10.43;4.53;;;;;;;23.86;38.37;100346.81;5096178;28;20209;-71
2021/09/11 10:14:00;;;;;;;9.85;4.55;;;;;;;23.82;38.07;100350.91;5114856;28;20433;-69
2021/09/11 10:16:34;;;;;;;8.40;4.47;;;;;;;23.73;38.65;100346.50;5114055;28;20040;-70
2021/09/11 10:19:16;;;;;;;8.07;4.20;;;;;;;24.18;37.49;100348.56;5114354;28;20131;-69
2021/09/11 10:21:45;;;;;;;7.72;3.85;;;;;;;24.04;37.28;100345.75;5114137;28;20051;-69
2021/09/11 10:24:34;;;;;;;8.25;3.97;;;;;;;24.18;36.90;100339.53;5113645;28;20062;-69
2021/09/11 10:27:11;;;;;;;6.50;3.80;;;;;;;24.05;36.70;100342.00;5113501;28;20463;-70
2021/09/11 10:30:11;;;;;;;7.97;3.50;;;;;;;23.97;35.59;100343.72;5113891;28;20527;-71
2021/09/11 10:32:41;;;;;;;7.70;3.78;;;;;;;24.11;34.97;100335.81;5090519;27;20082;-70
2021/09/11 10:35:12;;;;;;;8.25;3.47;;;;;;;24.25;33.97;100340.53;5113076;28;20218;-70
2021/09/11 10:37:45;;;;;;;5.80;3.35;;;;;;;24.13;34.64;100331.91;5113473;28;20123;-69
2021/09/11 10:40:16;;;;;;;6.53;3.30;;;;;;;24.18;34.67;100334.06;5113374;28;20482;-74
2021/09/11 10:43:31;;;;;;;9.35;3.83;;;;;;;24.31;34.70;100334.38;5113541;28;20160;-70
2021/09/11 10:46:11;;;;;;;5.60;3.10;;;;;;;24.46;32.93;100332.59;5050384;28;20466;-72
2021/09/11 10:48:45;;;;;;;7.07;3.50;;;;;;;24.68;32.91;100330.91;5113866;28;20044;-71
2021/09/11 10:51:20;;;;;;;8.05;3.45;;;;;;;24.75;32.09;100331.88;5113223;28;20044;-69
2021/09/11 10:54:08;;;;;;;5.78;3.20;;;;;;;24.72;32.26;100325.94;5113574;28;20036;-72
2021/09/11 10:56:38;;;;;;;6.55;3.40;;;;;;;24.55;34.19;100333.38;5113516;28;20040;-72
2021/09/11 10:59:35;;;;;;;7.35;3.42;;;;;;;24.46;33.53;100316.22;5114504;28;20055;-70
2021/09/11 11:02:11;;;;;;;7.25;3.55;;;;;;;24.52;33.57;100311.94;5113251;28;20071;-69
2021/09/11 11:04:51;;;;;;;6.97;3.00;;;;;;;24.80;31.77;100312.22;5113270;28;20039;-70
2021/09/11 11:07:22;;;;;;;7.93;3.20;;;;;;;24.66;32.13;100311.13;5113390;28;20482;-72
2021/09/11 11:09:56;;;;;;;5.35;3.13;;;;;;;24.92;31.15;100302.59;5113246;28;20061;-71
2021/09/11 11:12:29;;;;;;;7.40;3.45;;;;;;;24.92;31.24;100299.84;5113075;28;20046;-72
2021/09/11 11:15:00;;;;;;;9.85;3.60;;;;;;;24.60;32.00;100300.94;5113200;28;20036;-70
2021/09/11 11:17:30;;;;;;;9.02;3.88;;;;;;;24.62;32.30;100292.63;5112527;28;20038;-69
2021/09/11 11:19:59;;;;;;;5.88;3.13;;;;;;;24.75;32.15;100295.56;5113632;28;20039;-71
2021/09/11 11:22:32;;;;;;;5.05;3.42;;;;;;;24.69;32.55;100279.91;5113263;28;20046;-69
2021/09/11 11:25:07;;;;;;;6.30;3.40;;;;;;;24.92;32.71;100282.66;5112974;28;20047;-70
2021/09/11 11:27:36;;;;;;;6.55;3.35;;;;;;;25.09;32.19;100278.72;5113408;28;20413;-70
2021/09/11 11:30:09;;;;;;;7.95;3.90;;;;;;;25.07;31.95;100280.81;5112951;28;20052;-70
2021/09/11 11:32:39;;;;;;;6.72;3.72;;;;;;;25.19;31.34;100278.47;5113234;28;20039;-70
2021/09/11 11:35:09;;;;;;;13.93;3.80;;;;;;;25.06;31.46;100276.38;5112551;28;20067;-70